sensor_id;sensor_type;location;lat;lon;timestamp;P1;durP1;ratioP1;P2;durP2;ratioP2
3567;SDS011;1798;48.486;9.232;2022-08-24T00:01:46;10.60;;;5.13;;
3567;SDS011;1798;48.486;9.232;2022-08-24T00:04:13;10.00;;;5.27;;
3567;SDS011;1798;48.486;9.232;2022-08-24T00:06:39;14.13;;;5.17;;
3567;SDS011;1798;48.486;9.232;2022-08-24T00:09:06;10.30;;;4.50;;
3567;SDS011;1798;48.486;9.232;2022-08-24T00:11:33;14.40;;;4.60;;
3567;SDS011;1798;48.486;9.232;2022-08-24T00:14:01;13.63;;;4.77;;
3567;SDS011;1798;48.486;9.232;2022-08-24T00:16:28;9.53;;;5.57;;
3567;SDS011;1798;48.486;9.232;2022-08-24T00:18:55;10.53;;;4.67;;
3567;SDS011;1798;48.486;9.232;2022-08-24T00:21:22;12.13;;;4.93;;
3567;SDS011;1798;48.486;9.232;2022-08-24T00:23:49;9.30;;;4.90;;
3567;SDS011;1798;48.486;9.232;2022-08-24T00:26:16;7.73;;;4.70;;
3567;SDS011;1798;48.486;9.232;2022-08-24T00:28:43;38.27;;;5.37;;
3567;SDS011;1798;48.486;9.232;2022-08-24T00:31:11;11.10;;;5.00;;
3567;SDS011;1798;48.486;9.232;2022-08-24T00:33:38;12.60;;;5.43;;
3567;SDS011;1798;48.486;9.232;2022-08-24T00:36:05;8.30;;;5.00;;
3567;SDS011;1798;48.486;9.232;2022-08-24T00:38:32;10.17;;;4.70;;
3567;SDS011;1798;48.486;9.232;2022-08-24T00:41:00;12.80;;;4.63;;
3567;SDS011;1798;48.486;9.232;2022-08-24T00:43:27;8.97;;;4.67;;
3567;SDS011;1798;48.486;9.232;2022-08-24T00:46:00;9.63;;;4.90;;
3567;SDS011;1798;48.486;9.232;2022-08-24T00:48:36;8.03;;;4.50;;
3567;SDS011;1798;48.486;9.232;2022-08-24T00:51:08;8.10;;;4.57;;
3567;SDS011;1798;48.486;9.232;2022-08-24T00:53:39;15.23;;;5.20;;
3567;SDS011;1798;48.486;9.232;2022-08-24T00:56:09;9.17;;;5.40;;
3567;SDS011;1798;48.486;9.232;2022-08-24T00:58:40;7.03;;;4.70;;
3567;SDS011;1798;48.486;9.232;2022-08-24T01:01:10;14.33;;;5.53;;
3567;SDS011;1798;48.486;9.232;2022-08-24T01:03:40;6.63;;;4.20;;
3567;SDS011;1798;48.486;9.232;2022-08-24T01:06:08;10.50;;;6.33;;
3567;SDS011;1798;48.486;9.232;2022-08-24T01:08:36;9.10;;;5.40;;
3567;SDS011;1798;48.486;9.232;2022-08-24T01:11:05;8.87;;;5.07;;
3567;SDS011;1798;48.486;9.232;2022-08-24T01:13:33;8.50;;;4.60;;
3567;SDS011;1798;48.486;9.232;2022-08-24T01:16:02;20.63;;;5.00;;
3567;SDS011;1798;48.486;9.232;2022-08-24T01:18:31;12.57;;;4.83;;
3567;SDS011;1798;48.486;9.232;2022-08-24T01:21:17;11.30;;;4.90;;
3567;SDS011;1798;48.486;9.232;2022-08-24T01:23:47;10.27;;;5.50;;
3567;SDS011;1798;48.486;9.232;2022-08-24T01:26:15;12.20;;;5.10;;
3567;SDS011;1798;48.486;9.232;2022-08-24T01:28:45;8.87;;;5.07;;
3567;SDS011;1798;48.486;9.232;2022-08-24T01:31:13;10.13;;;5.13;;
3567;SDS011;1798;48.486;9.232;2022-08-24T01:33:40;9.87;;;4.70;;
3567;SDS011;1798;48.486;9.232;2022-08-24T01:36:08;11.00;;;4.50;;
3567;SDS011;1798;48.486;9.232;2022-08-24T01:38:40;13.53;;;5.30;;
3567;SDS011;1798;48.486;9.232;2022-08-24T01:41:09;6.77;;;4.27;;
3567;SDS011;1798;48.486;9.232;2022-08-24T01:43:35;9.23;;;4.90;;
3567;SDS011;1798;48.486;9.232;2022-08-24T01:46:02;10.27;;;5.33;;
3567;SDS011;1798;48.486;9.232;2022-08-24T01:48:29;8.43;;;4.83;;
3567;SDS011;1798;48.486;9.232;2022-08-24T01:50:56;14.30;;;5.00;;
3567;SDS011;1798;48.486;9.232;2022-08-24T01:53:23;8.97;;;5.10;;
3567;SDS011;1798;48.486;9.232;2022-08-24T01:55:50;10.00;;;4.93;;
3567;SDS011;1798;48.486;9.232;2022-08-24T01:58:18;6.80;;;4.20;;
3567;SDS011;1798;48.486;9.232;2022-08-24T02:00:45;9.70;;;4.80;;
3567;SDS011;1798;48.486;9.232;2022-08-24T02:03:12;6.70;;;4.53;;
3567;SDS011;1798;48.486;9.232;2022-08-24T02:05:39;16.87;;;4.70;;
3567;SDS011;1798;48.486;9.232;2022-08-24T02:08:05;16.17;;;5.07;;
3567;SDS011;1798;48.486;9.232;2022-08-24T02:10:32;18.70;;;5.17;;
3567;SDS011;1798;48.486;9.232;2022-08-24T02:12:59;14.90;;;5.30;;
3567;SDS011;1798;48.486;9.232;2022-08-24T02:15:29;13.43;;;4.73;;
3567;SDS011;1798;48.486;9.232;2022-08-24T02:17:57;14.63;;;5.77;;
3567;SDS011;1798;48.486;9.232;2022-08-24T02:20:24;8.00;;;4.50;;
3567;SDS011;1798;48.486;9.232;2022-08-24T02:22:52;8.03;;;4.50;;
3567;SDS011;1798;48.486;9.232;2022-08-24T02:25:19;18.30;;;5.83;;
3567;SDS011;1798;48.486;9.232;2022-08-24T02:27:46;9.00;;;5.13;;
3567;SDS011;1798;48.486;9.232;2022-08-24T02:30:13;7.50;;;5.43;;
3567;SDS011;1798;48.486;9.232;2022-08-24T02:32:41;10.20;;;4.60;;
3567;SDS011;1798;48.486;9.232;2022-08-24T02:35:09;7.73;;;4.87;;
3567;SDS011;1798;48.486;9.232;2022-08-24T02:37:36;10.60;;;4.73;;
3567;SDS011;1798;48.486;9.232;2022-08-24T02:40:03;8.47;;;4.60;;
3567;SDS011;1798;48.486;9.232;2022-08-24T02:42:31;18.00;;;7.10;;
3567;SDS011;1798;48.486;9.232;2022-08-24T02:44:58;13.97;;;5.10;;
3567;SDS011;1798;48.486;9.232;2022-08-24T02:47:25;15.03;;;4.60;;
3567;SDS011;1798;48.486;9.232;2022-08-24T02:49:53;23.67;;;6.03;;
3567;SDS011;1798;48.486;9.232;2022-08-24T02:52:21;12.80;;;5.47;;
3567;SDS011;1798;48.486;9.232;2022-08-24T02:54:48;10.03;;;4.80;;
3567;SDS011;1798;48.486;9.232;2022-08-24T02:57:14;8.77;;;4.50;;
3567;SDS011;1798;48.486;9.232;2022-08-24T02:59:41;7.30;;;4.50;;
3567;SDS011;1798;48.486;9.232;2022-08-24T03:02:08;9.60;;;5.60;;
3567;SDS011;1798;48.486;9.232;2022-08-24T03:04:35;7.10;;;4.87;;
3567;SDS011;1798;48.486;9.232;2022-08-24T03:09:44;9.50;;;5.20;;
3567;SDS011;1798;48.486;9.232;2022-08-24T03:12:11;12.07;;;5.10;;
3567;SDS011;1798;48.486;9.232;2022-08-24T03:14:38;13.27;;;4.70;;
3567;SDS011;1798;48.486;9.232;2022-08-24T03:17:05;7.10;;;5.00;;
3567;SDS011;1798;48.486;9.232;2022-08-24T03:19:32;13.20;;;4.90;;
3567;SDS011;1798;48.486;9.232;2022-08-24T03:21:59;8.00;;;4.67;;
3567;SDS011;1798;48.486;9.232;2022-08-24T03:24:27;10.10;;;5.00;;
3567;SDS011;1798;48.486;9.232;2022-08-24T03:26:54;15.27;;;5.10;;
3567;SDS011;1798;48.486;9.232;2022-08-24T03:29:21;16.40;;;5.00;;
3567;SDS011;1798;48.486;9.232;2022-08-24T03:31:47;13.73;;;4.93;;
3567;SDS011;1798;48.486;9.232;2022-08-24T03:34:14;9.70;;;5.47;;
3567;SDS011;1798;48.486;9.232;2022-08-24T03:36:41;9.73;;;4.57;;
3567;SDS011;1798;48.486;9.232;2022-08-24T03:39:10;21.03;;;5.37;;
3567;SDS011;1798;48.486;9.232;2022-08-24T03:41:38;12.87;;;4.77;;
3567;SDS011;1798;48.486;9.232;2022-08-24T03:44:05;10.63;;;5.10;;
3567;SDS011;1798;48.486;9.232;2022-08-24T03:46:34;12.77;;;5.73;;
3567;SDS011;1798;48.486;9.232;2022-08-24T03:49:02;14.70;;;5.27;;
3567;SDS011;1798;48.486;9.232;2022-08-24T03:51:31;8.80;;;4.70;;
3567;SDS011;1798;48.486;9.232;2022-08-24T03:53:58;11.70;;;6.27;;
3567;SDS011;1798;48.486;9.232;2022-08-24T03:56:26;9.13;;;5.60;;
3567;SDS011;1798;48.486;9.232;2022-08-24T03:58:54;10.50;;;6.27;;
3567;SDS011;1798;48.486;9.232;2022-08-24T04:01:21;8.47;;;4.63;;
3567;SDS011;1798;48.486;9.232;2022-08-24T04:03:48;12.83;;;4.50;;
3567;SDS011;1798;48.486;9.232;2022-08-24T04:06:17;7.50;;;4.60;;
3567;SDS011;1798;48.486;9.232;2022-08-24T04:08:45;10.90;;;4.83;;
3567;SDS011;1798;48.486;9.232;2022-08-24T04:11:12;6.90;;;4.87;;
3567;SDS011;1798;48.486;9.232;2022-08-24T04:13:43;13.33;;;4.80;;
3567;SDS011;1798;48.486;9.232;2022-08-24T04:16:12;12.00;;;4.50;;
3567;SDS011;1798;48.486;9.232;2022-08-24T04:18:40;8.20;;;4.60;;
3567;SDS011;1798;48.486;9.232;2022-08-24T04:21:14;17.37;;;5.70;;
3567;SDS011;1798;48.486;9.232;2022-08-24T04:23:41;10.50;;;5.00;;
3567;SDS011;1798;48.486;9.232;2022-08-24T04:26:08;9.43;;;4.57;;
3567;SDS011;1798;48.486;9.232;2022-08-24T04:28:34;7.20;;;4.50;;
3567;SDS011;1798;48.486;9.232;2022-08-24T04:31:02;9.13;;;5.03;;
3567;SDS011;1798;48.486;9.232;2022-08-24T04:33:31;26.07;;;5.47;;
3567;SDS011;1798;48.486;9.232;2022-08-24T04:35:58;10.20;;;4.80;;
3567;SDS011;1798;48.486;9.232;2022-08-24T04:38:25;8.80;;;4.40;;
3567;SDS011;1798;48.486;9.232;2022-08-24T04:40:53;9.30;;;5.13;;
3567;SDS011;1798;48.486;9.232;2022-08-24T04:43:20;11.50;;;5.37;;
3567;SDS011;1798;48.486;9.232;2022-08-24T04:45:47;8.67;;;4.73;;
3567;SDS011;1798;48.486;9.232;2022-08-24T04:48:15;6.30;;;4.63;;
3567;SDS011;1798;48.486;9.232;2022-08-24T04:50:44;9.80;;;6.13;;
3567;SDS011;1798;48.486;9.232;2022-08-24T04:53:11;7.93;;;4.73;;
3567;SDS011;1798;48.486;9.232;2022-08-24T04:55:42;13.00;;;5.30;;
3567;SDS011;1798;48.486;9.232;2022-08-24T04:58:11;11.43;;;5.87;;
3567;SDS011;1798;48.486;9.232;2022-08-24T05:00:39;8.40;;;5.47;;
3567;SDS011;1798;48.486;9.232;2022-08-24T05:03:06;7.70;;;5.17;;
3567;SDS011;1798;48.486;9.232;2022-08-24T05:05:33;10.53;;;4.27;;
3567;SDS011;1798;48.486;9.232;2022-08-24T05:08:02;8.30;;;5.30;;
3567;SDS011;1798;48.486;9.232;2022-08-24T05:10:29;13.40;;;4.93;;
3567;SDS011;1798;48.486;9.232;2022-08-24T05:12:55;15.87;;;5.20;;
3567;SDS011;1798;48.486;9.232;2022-08-24T05:15:22;7.83;;;4.93;;
3567;SDS011;1798;48.486;9.232;2022-08-24T05:17:49;8.40;;;4.60;;
3567;SDS011;1798;48.486;9.232;2022-08-24T05:20:16;10.57;;;5.40;;
3567;SDS011;1798;48.486;9.232;2022-08-24T05:22:42;8.80;;;5.03;;
3567;SDS011;1798;48.486;9.232;2022-08-24T05:25:11;17.87;;;4.67;;
3567;SDS011;1798;48.486;9.232;2022-08-24T05:27:37;11.40;;;5.60;;
3567;SDS011;1798;48.486;9.232;2022-08-24T05:30:05;8.90;;;5.03;;
3567;SDS011;1798;48.486;9.232;2022-08-24T05:32:32;9.00;;;5.00;;
3567;SDS011;1798;48.486;9.232;2022-08-24T05:34:59;9.40;;;5.40;;
3567;SDS011;1798;48.486;9.232;2022-08-24T05:37:28;10.97;;;5.93;;
3567;SDS011;1798;48.486;9.232;2022-08-24T05:39:55;8.10;;;4.77;;
3567;SDS011;1798;48.486;9.232;2022-08-24T05:42:23;12.60;;;5.80;;
3567;SDS011;1798;48.486;9.232;2022-08-24T05:44:50;8.70;;;5.40;;
3567;SDS011;1798;48.486;9.232;2022-08-24T05:47:17;11.40;;;5.67;;
3567;SDS011;1798;48.486;9.232;2022-08-24T05:49:44;17.73;;;5.33;;
3567;SDS011;1798;48.486;9.232;2022-08-24T05:52:10;17.50;;;5.93;;
3567;SDS011;1798;48.486;9.232;2022-08-24T05:54:37;8.97;;;6.30;;
3567;SDS011;1798;48.486;9.232;2022-08-24T05:57:04;17.37;;;5.73;;
3567;SDS011;1798;48.486;9.232;2022-08-24T05:59:33;10.10;;;6.30;;
3567;SDS011;1798;48.486;9.232;2022-08-24T06:02:00;11.70;;;5.43;;
3567;SDS011;1798;48.486;9.232;2022-08-24T06:04:27;13.33;;;5.80;;
3567;SDS011;1798;48.486;9.232;2022-08-24T06:06:54;10.30;;;6.30;;
3567;SDS011;1798;48.486;9.232;2022-08-24T06:09:21;37.33;;;7.70;;
3567;SDS011;1798;48.486;9.232;2022-08-24T06:11:48;19.43;;;5.43;;
3567;SDS011;1798;48.486;9.232;2022-08-24T06:14:15;17.10;;;6.97;;
3567;SDS011;1798;48.486;9.232;2022-08-24T06:16:44;14.47;;;6.20;;
3567;SDS011;1798;48.486;9.232;2022-08-24T06:19:13;19.57;;;6.47;;
3567;SDS011;1798;48.486;9.232;2022-08-24T06:21:42;11.57;;;5.80;;
3567;SDS011;1798;48.486;9.232;2022-08-24T06:24:10;14.13;;;7.30;;
3567;SDS011;1798;48.486;9.232;2022-08-24T06:26:39;10.93;;;6.27;;
3567;SDS011;1798;48.486;9.232;2022-08-24T06:29:23;10.97;;;6.23;;
3567;SDS011;1798;48.486;9.232;2022-08-24T06:31:52;17.00;;;5.67;;
3567;SDS011;1798;48.486;9.232;2022-08-24T06:34:19;13.30;;;6.50;;
3567;SDS011;1798;48.486;9.232;2022-08-24T06:36:47;14.30;;;5.70;;
3567;SDS011;1798;48.486;9.232;2022-08-24T06:39:15;10.67;;;5.17;;
3567;SDS011;1798;48.486;9.232;2022-08-24T06:41:41;15.30;;;5.70;;
3567;SDS011;1798;48.486;9.232;2022-08-24T06:44:08;10.70;;;5.67;;
3567;SDS011;1798;48.486;9.232;2022-08-24T06:46:35;16.10;;;5.33;;
3567;SDS011;1798;48.486;9.232;2022-08-24T06:49:03;31.37;;;5.80;;
3567;SDS011;1798;48.486;9.232;2022-08-24T06:51:30;9.40;;;5.50;;
3567;SDS011;1798;48.486;9.232;2022-08-24T06:53:57;9.67;;;5.33;;
3567;SDS011;1798;48.486;9.232;2022-08-24T06:56:24;14.03;;;6.00;;
3567;SDS011;1798;48.486;9.232;2022-08-24T06:58:50;22.17;;;5.90;;
3567;SDS011;1798;48.486;9.232;2022-08-24T07:01:18;15.40;;;6.10;;
3567;SDS011;1798;48.486;9.232;2022-08-24T07:03:46;12.73;;;5.87;;
3567;SDS011;1798;48.486;9.232;2022-08-24T07:06:14;13.60;;;5.50;;
3567;SDS011;1798;48.486;9.232;2022-08-24T07:08:43;9.50;;;4.60;;
3567;SDS011;1798;48.486;9.232;2022-08-24T07:11:10;11.87;;;6.00;;
3567;SDS011;1798;48.486;9.232;2022-08-24T07:13:38;20.87;;;7.20;;
3567;SDS011;1798;48.486;9.232;2022-08-24T07:16:05;12.10;;;6.90;;
3567;SDS011;1798;48.486;9.232;2022-08-24T07:18:34;14.60;;;6.13;;
3567;SDS011;1798;48.486;9.232;2022-08-24T07:21:01;15.70;;;5.80;;
3567;SDS011;1798;48.486;9.232;2022-08-24T07:23:30;30.47;;;7.00;;
3567;SDS011;1798;48.486;9.232;2022-08-24T07:26:04;25.47;;;7.73;;
3567;SDS011;1798;48.486;9.232;2022-08-24T07:28:34;15.30;;;6.50;;
3567;SDS011;1798;48.486;9.232;2022-08-24T07:31:02;15.73;;;6.70;;
3567;SDS011;1798;48.486;9.232;2022-08-24T07:33:29;13.83;;;6.23;;
3567;SDS011;1798;48.486;9.232;2022-08-24T07:35:56;17.40;;;7.23;;
3567;SDS011;1798;48.486;9.232;2022-08-24T07:38:23;29.43;;;7.10;;
3567;SDS011;1798;48.486;9.232;2022-08-24T07:40:51;14.43;;;7.30;;
3567;SDS011;1798;48.486;9.232;2022-08-24T07:43:18;13.83;;;6.40;;
3567;SDS011;1798;48.486;9.232;2022-08-24T07:45:46;17.97;;;7.70;;
3567;SDS011;1798;48.486;9.232;2022-08-24T07:48:14;15.60;;;8.10;;
3567;SDS011;1798;48.486;9.232;2022-08-24T07:50:41;7.50;;;4.60;;
3567;SDS011;1798;48.486;9.232;2022-08-24T07:53:08;30.60;;;7.27;;
3567;SDS011;1798;48.486;9.232;2022-08-24T07:55:35;7.07;;;4.97;;
3567;SDS011;1798;48.486;9.232;2022-08-24T07:58:03;9.00;;;5.90;;
3567;SDS011;1798;48.486;9.232;2022-08-24T08:00:30;19.40;;;5.43;;
3567;SDS011;1798;48.486;9.232;2022-08-24T08:02:56;8.10;;;4.70;;
3567;SDS011;1798;48.486;9.232;2022-08-24T08:05:23;6.63;;;4.23;;
3567;SDS011;1798;48.486;9.232;2022-08-24T08:07:51;17.97;;;8.13;;
3567;SDS011;1798;48.486;9.232;2022-08-24T08:10:18;26.73;;;7.47;;
3567;SDS011;1798;48.486;9.232;2022-08-24T08:12:45;13.07;;;6.00;;
3567;SDS011;1798;48.486;9.232;2022-08-24T08:15:14;18.93;;;6.23;;
3567;SDS011;1798;48.486;9.232;2022-08-24T08:17:40;47.10;;;8.40;;
3567;SDS011;1798;48.486;9.232;2022-08-24T08:20:08;25.10;;;7.00;;
3567;SDS011;1798;48.486;9.232;2022-08-24T08:22:35;6.50;;;4.60;;
3567;SDS011;1798;48.486;9.232;2022-08-24T08:25:19;24.30;;;5.60;;
3567;SDS011;1798;48.486;9.232;2022-08-24T08:27:46;14.70;;;4.90;;
3567;SDS011;1798;48.486;9.232;2022-08-24T08:30:14;8.30;;;4.80;;
3567;SDS011;1798;48.486;9.232;2022-08-24T08:32:41;11.33;;;6.23;;
3567;SDS011;1798;48.486;9.232;2022-08-24T08:35:08;10.97;;;4.87;;
3567;SDS011;1798;48.486;9.232;2022-08-24T08:37:35;10.40;;;5.30;;
3567;SDS011;1798;48.486;9.232;2022-08-24T08:40:03;8.23;;;4.77;;
3567;SDS011;1798;48.486;9.232;2022-08-24T08:42:39;19.00;;;5.33;;
3567;SDS011;1798;48.486;9.232;2022-08-24T08:45:24;9.90;;;4.93;;
3567;SDS011;1798;48.486;9.232;2022-08-24T08:48:07;6.73;;;3.90;;
3567;SDS011;1798;48.486;9.232;2022-08-24T08:50:50;10.23;;;4.67;;
3567;SDS011;1798;48.486;9.232;2022-08-24T08:53:37;9.87;;;5.37;;
3567;SDS011;1798;48.486;9.232;2022-08-24T08:56:32;15.50;;;5.30;;
3567;SDS011;1798;48.486;9.232;2022-08-24T08:59:02;8.60;;;4.47;;
3567;SDS011;1798;48.486;9.232;2022-08-24T09:01:44;11.13;;;6.87;;
3567;SDS011;1798;48.486;9.232;2022-08-24T09:04:17;8.90;;;4.67;;
3567;SDS011;1798;48.486;9.232;2022-08-24T09:07:09;12.30;;;5.37;;
3567;SDS011;1798;48.486;9.232;2022-08-24T09:09:51;10.03;;;6.07;;
3567;SDS011;1798;48.486;9.232;2022-08-24T09:12:29;9.20;;;5.20;;
3567;SDS011;1798;48.486;9.232;2022-08-24T09:15:03;10.03;;;4.90;;
3567;SDS011;1798;48.486;9.232;2022-08-24T09:17:42;10.13;;;5.33;;
3567;SDS011;1798;48.486;9.232;2022-08-24T09:20:18;7.53;;;4.80;;
3567;SDS011;1798;48.486;9.232;2022-08-24T09:22:56;14.03;;;4.60;;
3567;SDS011;1798;48.486;9.232;2022-08-24T09:25:31;11.93;;;5.23;;
3567;SDS011;1798;48.486;9.232;2022-08-24T09:28:07;8.00;;;4.73;;
3567;SDS011;1798;48.486;9.232;2022-08-24T09:30:53;10.53;;;4.40;;
3567;SDS011;1798;48.486;9.232;2022-08-24T09:33:25;8.40;;;4.30;;
3567;SDS011;1798;48.486;9.232;2022-08-24T09:36:00;15.33;;;5.10;;
3567;SDS011;1798;48.486;9.232;2022-08-24T09:38:40;7.97;;;5.00;;
3567;SDS011;1798;48.486;9.232;2022-08-24T09:41:42;8.90;;;5.40;;
3567;SDS011;1798;48.486;9.232;2022-08-24T09:44:25;9.90;;;4.90;;
3567;SDS011;1798;48.486;9.232;2022-08-24T09:47:20;7.80;;;4.70;;
3567;SDS011;1798;48.486;9.232;2022-08-24T09:53:21;12.20;;;4.43;;
3567;SDS011;1798;48.486;9.232;2022-08-24T09:56:12;17.73;;;5.60;;
3567;SDS011;1798;48.486;9.232;2022-08-24T09:58:49;12.73;;;4.63;;
3567;SDS011;1798;48.486;9.232;2022-08-24T10:01:25;9.00;;;5.07;;
3567;SDS011;1798;48.486;9.232;2022-08-24T10:04:00;9.90;;;5.10;;
3567;SDS011;1798;48.486;9.232;2022-08-24T10:06:44;7.07;;;4.30;;
3567;SDS011;1798;48.486;9.232;2022-08-24T10:09:23;16.47;;;4.33;;
3567;SDS011;1798;48.486;9.232;2022-08-24T10:11:59;9.60;;;4.23;;
3567;SDS011;1798;48.486;9.232;2022-08-24T10:14:36;7.63;;;4.53;;
3567;SDS011;1798;48.486;9.232;2022-08-24T10:17:12;8.07;;;3.80;;
3567;SDS011;1798;48.486;9.232;2022-08-24T10:19:53;10.33;;;4.30;;
3567;SDS011;1798;48.486;9.232;2022-08-24T10:22:38;7.57;;;5.03;;
3567;SDS011;1798;48.486;9.232;2022-08-24T10:25:22;8.87;;;4.57;;
3567;SDS011;1798;48.486;9.232;2022-08-24T10:27:56;6.90;;;5.03;;
3567;SDS011;1798;48.486;9.232;2022-08-24T10:30:39;24.77;;;4.63;;
3567;SDS011;1798;48.486;9.232;2022-08-24T10:33:19;39.10;;;4.70;;
3567;SDS011;1798;48.486;9.232;2022-08-24T10:35:54;6.43;;;4.13;;
3567;SDS011;1798;48.486;9.232;2022-08-24T10:38:45;16.23;;;4.33;;
3567;SDS011;1798;48.486;9.232;2022-08-24T10:44:25;7.33;;;4.20;;
3567;SDS011;1798;48.486;9.232;2022-08-24T10:47:06;5.43;;;3.90;;
3567;SDS011;1798;48.486;9.232;2022-08-24T10:49:46;6.73;;;4.00;;
3567;SDS011;1798;48.486;9.232;2022-08-24T10:55:47;6.43;;;3.80;;
3567;SDS011;1798;48.486;9.232;2022-08-24T10:58:31;7.87;;;4.47;;
3567;SDS011;1798;48.486;9.232;2022-08-24T11:01:12;14.40;;;4.97;;
3567;SDS011;1798;48.486;9.232;2022-08-24T11:03:48;8.67;;;5.00;;
3567;SDS011;1798;48.486;9.232;2022-08-24T11:06:17;12.60;;;4.00;;
3567;SDS011;1798;48.486;9.232;2022-08-24T11:08:50;10.70;;;4.87;;
3567;SDS011;1798;48.486;9.232;2022-08-24T11:11:23;7.33;;;4.33;;
3567;SDS011;1798;48.486;9.232;2022-08-24T11:13:55;8.27;;;5.27;;
3567;SDS011;1798;48.486;9.232;2022-08-24T11:16:25;6.80;;;4.43;;
3567;SDS011;1798;48.486;9.232;2022-08-24T11:18:55;10.07;;;3.60;;
3567;SDS011;1798;48.486;9.232;2022-08-24T11:21:36;7.40;;;4.23;;
3567;SDS011;1798;48.486;9.232;2022-08-24T11:24:08;7.57;;;4.20;;
3567;SDS011;1798;48.486;9.232;2022-08-24T11:26:49;21.60;;;5.13;;
3567;SDS011;1798;48.486;9.232;2022-08-24T11:29:20;10.37;;;4.33;;
3567;SDS011;1798;48.486;9.232;2022-08-24T11:31:49;7.87;;;4.40;;
3567;SDS011;1798;48.486;9.232;2022-08-24T11:34:18;5.97;;;3.70;;
3567;SDS011;1798;48.486;9.232;2022-08-24T11:36:56;6.67;;;3.73;;
3567;SDS011;1798;48.486;9.232;2022-08-24T11:39:25;6.33;;;4.27;;
3567;SDS011;1798;48.486;9.232;2022-08-24T11:41:56;7.77;;;4.47;;
3567;SDS011;1798;48.486;9.232;2022-08-24T11:44:34;9.30;;;5.00;;
3567;SDS011;1798;48.486;9.232;2022-08-24T11:47:07;7.00;;;4.60;;
3567;SDS011;1798;48.486;9.232;2022-08-24T11:49:41;6.20;;;3.93;;
3567;SDS011;1798;48.486;9.232;2022-08-24T11:52:13;7.27;;;4.20;;
3567;SDS011;1798;48.486;9.232;2022-08-24T11:54:55;8.07;;;4.00;;
3567;SDS011;1798;48.486;9.232;2022-08-24T11:57:28;6.37;;;3.17;;
3567;SDS011;1798;48.486;9.232;2022-08-24T12:00:00;6.50;;;4.00;;
3567;SDS011;1798;48.486;9.232;2022-08-24T12:02:31;10.40;;;3.00;;
3567;SDS011;1798;48.486;9.232;2022-08-24T12:05:03;7.63;;;4.50;;
3567;SDS011;1798;48.486;9.232;2022-08-24T12:07:39;10.00;;;3.60;;
3567;SDS011;1798;48.486;9.232;2022-08-24T12:10:15;4.90;;;3.10;;
3567;SDS011;1798;48.486;9.232;2022-08-24T12:12:48;5.53;;;3.47;;
3567;SDS011;1798;48.486;9.232;2022-08-24T12:15:23;7.57;;;3.87;;
3567;SDS011;1798;48.486;9.232;2022-08-24T12:17:59;9.10;;;4.67;;
3567;SDS011;1798;48.486;9.232;2022-08-24T12:20:30;7.70;;;4.13;;
3567;SDS011;1798;48.486;9.232;2022-08-24T12:23:01;6.00;;;3.07;;
3567;SDS011;1798;48.486;9.232;2022-08-24T12:25:30;18.00;;;4.03;;
3567;SDS011;1798;48.486;9.232;2022-08-24T12:28:16;7.07;;;3.87;;
3567;SDS011;1798;48.486;9.232;2022-08-24T12:30:48;5.27;;;3.40;;
3567;SDS011;1798;48.486;9.232;2022-08-24T12:33:16;7.60;;;4.10;;
3567;SDS011;1798;48.486;9.232;2022-08-24T12:35:45;12.63;;;4.43;;
3567;SDS011;1798;48.486;9.232;2022-08-24T12:38:14;6.60;;;4.10;;
3567;SDS011;1798;48.486;9.232;2022-08-24T12:40:46;6.77;;;3.70;;
3567;SDS011;1798;48.486;9.232;2022-08-24T12:43:17;5.93;;;3.90;;
3567;SDS011;1798;48.486;9.232;2022-08-24T12:45:48;7.80;;;4.17;;
3567;SDS011;1798;48.486;9.232;2022-08-24T12:48:17;7.30;;;3.83;;
3567;SDS011;1798;48.486;9.232;2022-08-24T12:50:54;14.77;;;3.73;;
3567;SDS011;1798;48.486;9.232;2022-08-24T12:59:25;6.20;;;3.60;;
3567;SDS011;1798;48.486;9.232;2022-08-24T13:01:57;8.63;;;3.57;;
3567;SDS011;1798;48.486;9.232;2022-08-24T13:04:32;7.20;;;3.90;;
3567;SDS011;1798;48.486;9.232;2022-08-24T13:07:05;5.00;;;3.40;;
3567;SDS011;1798;48.486;9.232;2022-08-24T13:09:34;6.20;;;3.80;;
3567;SDS011;1798;48.486;9.232;2022-08-24T13:15:21;7.17;;;3.87;;
3567;SDS011;1798;48.486;9.232;2022-08-24T13:17:54;6.27;;;3.60;;
3567;SDS011;1798;48.486;9.232;2022-08-24T13:20:23;5.57;;;3.50;;
3567;SDS011;1798;48.486;9.232;2022-08-24T13:23:02;6.73;;;4.30;;
3567;SDS011;1798;48.486;9.232;2022-08-24T13:25:41;5.73;;;3.60;;
3567;SDS011;1798;48.486;9.232;2022-08-24T13:31:11;9.53;;;4.37;;
3567;SDS011;1798;48.486;9.232;2022-08-24T13:33:46;7.50;;;3.43;;
3567;SDS011;1798;48.486;9.232;2022-08-24T13:39:35;6.43;;;3.43;;
3567;SDS011;1798;48.486;9.232;2022-08-24T13:42:25;8.83;;;3.93;;
3567;SDS011;1798;48.486;9.232;2022-08-24T13:44:58;13.23;;;4.10;;
3567;SDS011;1798;48.486;9.232;2022-08-24T13:47:32;11.27;;;3.10;;
3567;SDS011;1798;48.486;9.232;2022-08-24T13:50:25;7.27;;;4.10;;
3567;SDS011;1798;48.486;9.232;2022-08-24T13:52:57;10.70;;;4.00;;
3567;SDS011;1798;48.486;9.232;2022-08-24T13:55:36;5.50;;;3.60;;
3567;SDS011;1798;48.486;9.232;2022-08-24T13:58:12;9.30;;;4.30;;
3567;SDS011;1798;48.486;9.232;2022-08-24T14:00:44;8.93;;;3.63;;
3567;SDS011;1798;48.486;9.232;2022-08-24T14:06:34;11.13;;;3.83;;
3567;SDS011;1798;48.486;9.232;2022-08-24T14:09:17;6.37;;;4.33;;
3567;SDS011;1798;48.486;9.232;2022-08-24T14:12:01;6.83;;;3.83;;
3567;SDS011;1798;48.486;9.232;2022-08-24T14:15:00;9.50;;;3.97;;
3567;SDS011;1798;48.486;9.232;2022-08-24T14:17:36;6.07;;;4.00;;
3567;SDS011;1798;48.486;9.232;2022-08-24T14:20:29;7.70;;;4.87;;
3567;SDS011;1798;48.486;9.232;2022-08-24T14:23:12;6.30;;;3.90;;
3567;SDS011;1798;48.486;9.232;2022-08-24T14:25:49;7.50;;;4.33;;
3567;SDS011;1798;48.486;9.232;2022-08-24T14:28:23;17.63;;;4.47;;
3567;SDS011;1798;48.486;9.232;2022-08-24T14:33:48;7.37;;;4.43;;
3567;SDS011;1798;48.486;9.232;2022-08-24T14:36:19;6.03;;;4.17;;
3567;SDS011;1798;48.486;9.232;2022-08-24T14:38:56;5.70;;;3.87;;
3567;SDS011;1798;48.486;9.232;2022-08-24T14:41:32;7.13;;;3.90;;
3567;SDS011;1798;48.486;9.232;2022-08-24T14:44:10;6.87;;;3.60;;
3567;SDS011;1798;48.486;9.232;2022-08-24T14:46:47;8.37;;;4.30;;
3567;SDS011;1798;48.486;9.232;2022-08-24T14:49:19;10.50;;;3.80;;
3567;SDS011;1798;48.486;9.232;2022-08-24T14:51:54;9.83;;;3.90;;
3567;SDS011;1798;48.486;9.232;2022-08-24T14:54:30;8.57;;;4.20;;
3567;SDS011;1798;48.486;9.232;2022-08-24T14:57:08;19.67;;;4.07;;
3567;SDS011;1798;48.486;9.232;2022-08-24T14:59:45;8.80;;;3.73;;
3567;SDS011;1798;48.486;9.232;2022-08-24T15:02:33;14.03;;;3.80;;
3567;SDS011;1798;48.486;9.232;2022-08-24T15:05:20;7.57;;;4.10;;
3567;SDS011;1798;48.486;9.232;2022-08-24T15:07:54;8.67;;;4.10;;
3567;SDS011;1798;48.486;9.232;2022-08-24T15:10:24;8.27;;;4.30;;
3567;SDS011;1798;48.486;9.232;2022-08-24T15:12:55;22.30;;;4.47;;
3567;SDS011;1798;48.486;9.232;2022-08-24T15:15:27;6.70;;;4.10;;
3567;SDS011;1798;48.486;9.232;2022-08-24T15:17:58;5.87;;;3.70;;
3567;SDS011;1798;48.486;9.232;2022-08-24T15:20:38;6.30;;;3.37;;
3567;SDS011;1798;48.486;9.232;2022-08-24T15:23:15;8.73;;;4.07;;
3567;SDS011;1798;48.486;9.232;2022-08-24T15:25:48;6.70;;;4.13;;
3567;SDS011;1798;48.486;9.232;2022-08-24T15:28:21;12.00;;;3.63;;
3567;SDS011;1798;48.486;9.232;2022-08-24T15:30:53;7.90;;;4.07;;
3567;SDS011;1798;48.486;9.232;2022-08-24T15:33:23;7.20;;;4.00;;
3567;SDS011;1798;48.486;9.232;2022-08-24T15:35:51;8.17;;;4.13;;
3567;SDS011;1798;48.486;9.232;2022-08-24T15:38:30;24.03;;;4.23;;
3567;SDS011;1798;48.486;9.232;2022-08-24T15:41:03;9.47;;;3.90;;
3567;SDS011;1798;48.486;9.232;2022-08-24T15:43:32;5.90;;;3.70;;
3567;SDS011;1798;48.486;9.232;2022-08-24T15:46:00;6.70;;;4.13;;
3567;SDS011;1798;48.486;9.232;2022-08-24T15:48:27;7.80;;;4.37;;
3567;SDS011;1798;48.486;9.232;2022-08-24T15:50:55;6.80;;;4.23;;
3567;SDS011;1798;48.486;9.232;2022-08-24T15:53:30;6.77;;;3.60;;
3567;SDS011;1798;48.486;9.232;2022-08-24T15:55:59;7.23;;;3.60;;
3567;SDS011;1798;48.486;9.232;2022-08-24T15:58:51;9.83;;;4.60;;
3567;SDS011;1798;48.486;9.232;2022-08-24T16:01:19;9.43;;;4.37;;
3567;SDS011;1798;48.486;9.232;2022-08-24T16:04:06;21.43;;;3.70;;
3567;SDS011;1798;48.486;9.232;2022-08-24T16:06:35;6.90;;;4.03;;
3567;SDS011;1798;48.486;9.232;2022-08-24T16:09:04;6.33;;;4.10;;